createdAt,value
2018-09-04T00:00:42.841Z,0
2018-09-04T00:01:53.014Z,0
2018-09-04T00:03:02.591Z,0
2018-09-04T00:04:12.494Z,0
2018-09-04T00:05:22.351Z,0
2018-09-04T00:06:32.478Z,0
2018-09-04T00:07:42.333Z,0
2018-09-04T00:08:52.183Z,0
2018-09-04T00:10:02.088Z,0
2018-09-04T00:11:12.208Z,0
2018-09-04T00:12:22.059Z,0
2018-09-04T00:13:31.911Z,0
2018-09-04T00:14:42.087Z,0
2018-09-04T00:15:52.222Z,0
2018-09-04T00:17:02.347Z,0
2018-09-04T00:18:11.922Z,0
2018-09-04T00:19:22.048Z,0
2018-09-04T00:20:32.176Z,0
2018-09-04T00:21:41.529Z,0
2018-09-04T00:22:51.651Z,0
2018-09-04T00:24:01.237Z,0
2018-09-04T00:25:11.085Z,0
2018-09-04T00:26:20.656Z,0
2018-09-04T00:27:30.556Z,0
2018-09-04T00:28:40.419Z,0
2018-09-04T00:29:50.542Z,0
2018-09-04T00:31:00.118Z,0
2018-09-04T00:32:10.251Z,0
2018-09-04T00:33:20.426Z,0
2018-09-04T00:34:30.646Z,0
2018-09-04T00:35:40.579Z,0
2018-09-04T00:36:50.706Z,0
2018-09-04T00:38:00.838Z,0
2018-09-04T00:39:10.466Z,0
2018-09-04T00:40:19.769Z,0
2018-09-04T00:41:29.343Z,0
2018-09-04T00:42:39.473Z,0
2018-09-04T00:43:49.332Z,0
2018-09-04T00:45:01.206Z,0
2018-09-04T00:46:11.066Z,0
2018-09-04T00:47:21.188Z,0
2018-09-04T00:48:31.045Z,0
2018-09-04T00:49:40.894Z,0
2018-09-04T00:50:50.799Z,0
2018-09-04T00:52:00.375Z,0
2018-09-04T00:53:10.230Z,0
2018-09-04T00:54:20.081Z,0
2018-09-04T00:55:29.937Z,0
2018-09-04T00:56:39.560Z,0
2018-09-04T00:57:49.415Z,0
2018-09-04T00:58:59.395Z,0
2018-09-04T01:00:09.590Z,0
2018-09-04T01:01:19.166Z,0
2018-09-04T01:02:29.352Z,0
2018-09-04T01:03:39.202Z,0
2018-09-04T01:04:49.051Z,0
2018-09-04T01:05:58.360Z,0
2018-09-04T01:07:08.492Z,0
2018-09-04T01:08:18.397Z,0
2018-09-04T01:09:28.253Z,0
2018-09-04T01:10:38.109Z,0
2018-09-04T01:11:48.236Z,0
2018-09-04T01:12:58.088Z,0
2018-09-04T01:14:08.273Z,0
2018-09-04T01:15:18.409Z,0
2018-09-04T01:16:27.983Z,0
2018-09-04T01:17:37.833Z,0
2018-09-04T01:18:47.969Z,0
2018-09-04T01:19:58.150Z,0
2018-09-04T01:21:08.002Z,0
2018-09-04T01:22:17.852Z,0
2018-09-04T01:23:27.978Z,0
2018-09-04T01:24:37.827Z,0
2018-09-04T01:25:47.954Z,0
2018-09-04T01:26:58.085Z,0
2018-09-04T01:28:07.933Z,0
2018-09-04T01:29:17.239Z,0
2018-09-04T01:30:27.364Z,0
2018-09-04T01:31:37.504Z,0
2018-09-04T01:32:47.356Z,0
2018-09-04T01:33:57.481Z,0
2018-09-04T01:35:07.331Z,0
2018-09-04T01:36:17.456Z,0
2018-09-04T01:37:27.634Z,0
2018-09-04T01:38:37.487Z,0
2018-09-04T01:39:47.611Z,0
2018-09-04T01:40:57.741Z,0
2018-09-04T01:42:07.592Z,0
2018-09-04T01:43:17.219Z,0
2018-09-04T01:44:27.075Z,0
2018-09-04T01:45:36.938Z,0
2018-09-04T01:46:46.791Z,0
2018-09-04T01:47:56.923Z,0
2018-09-04T01:49:06.829Z,0
2018-09-04T01:50:16.674Z,0
2018-09-04T01:51:26.524Z,0
2018-09-04T01:52:36.371Z,0
2018-09-04T01:53:46.496Z,0
2018-09-04T01:54:56.676Z,0
2018-09-04T01:56:06.813Z,0
2018-09-04T01:57:16.939Z,0
2018-09-04T01:58:26.795Z,0
2018-09-04T01:59:36.648Z,0
2018-09-04T02:00:46.769Z,0
2018-09-04T02:01:56.896Z,0
2018-09-04T02:03:07.021Z,0
2018-09-04T02:04:17.161Z,0
2018-09-04T02:05:27.014Z,0
2018-09-04T02:06:36.911Z,0
2018-09-04T02:07:47.035Z,0
2018-09-04T02:08:57.168Z,0
2018-09-04T02:10:06.476Z,0
2018-09-04T02:11:16.331Z,0
2018-09-04T02:12:28.803Z,0
2018-09-04T02:13:38.935Z,0
2018-09-04T02:14:48.789Z,0
2018-09-04T02:15:58.922Z,0
2018-09-04T02:17:08.770Z,0
2018-09-04T02:18:18.944Z,0
2018-09-04T02:19:28.788Z,0
2018-09-04T02:20:38.913Z,0
2018-09-04T02:21:48.761Z,0
2018-09-04T02:22:58.386Z,0
2018-09-04T02:24:08.714Z,0
2018-09-04T02:25:18.845Z,0
2018-09-04T02:26:28.975Z,0
2018-09-04T02:27:38.547Z,0
2018-09-04T02:28:48.394Z,0
2018-09-04T02:29:58.576Z,0
2018-09-04T02:31:08.718Z,0
2018-09-04T02:32:18.571Z,0
2018-09-04T02:33:28.732Z,0
2018-09-04T02:34:38.589Z,0
2018-09-04T02:35:48.765Z,0
2018-09-04T02:36:58.622Z,0
2018-09-04T02:38:08.471Z,0
2018-09-04T02:39:18.604Z,0
2018-09-04T02:40:28.476Z,0
2018-09-04T02:41:38.098Z,0
2018-09-04T02:42:47.954Z,0
2018-09-04T02:43:58.076Z,0
2018-09-04T02:45:07.929Z,0
2018-09-04T02:46:18.127Z,0
2018-09-04T02:47:27.705Z,0
2018-09-04T02:48:37.556Z,0
2018-09-04T02:49:47.699Z,0
2018-09-04T02:50:57.273Z,0
2018-09-04T02:52:06.858Z,0
2018-09-04T02:53:17.030Z,0
2018-09-04T02:54:27.154Z,0
2018-09-04T02:55:36.737Z,0
2018-09-04T02:56:46.590Z,0
2018-09-04T02:57:56.717Z,0
2018-09-04T02:59:06.623Z,0
2018-09-04T03:00:16.752Z,0
2018-09-04T03:01:26.904Z,0
2018-09-04T03:02:37.027Z,0
2018-09-04T03:03:47.153Z,0
2018-09-04T03:04:57.324Z,0
2018-09-04T03:06:07.177Z,0
2018-09-04T03:07:17.310Z,0
2018-09-04T03:08:27.437Z,0
2018-09-04T03:09:37.564Z,0
2018-09-04T03:10:47.464Z,0
2018-09-04T03:11:57.589Z,0
2018-09-04T03:13:07.717Z,0
2018-09-04T03:14:17.573Z,0
2018-09-04T03:15:27.702Z,0
2018-09-04T03:16:37.829Z,0
2018-09-04T03:17:47.966Z,0
2018-09-04T03:18:58.095Z,0
2018-09-04T03:20:08.274Z,0
2018-09-04T03:21:18.130Z,0
2018-09-04T03:22:28.310Z,0
2018-09-04T03:23:37.887Z,0
2018-09-04T03:24:48.019Z,0
2018-09-04T03:25:58.157Z,0
2018-09-04T03:27:08.012Z,0
2018-09-04T03:28:17.917Z,0
2018-09-04T03:29:27.823Z,0
2018-09-04T03:30:37.680Z,0
2018-09-04T03:31:47.808Z,0
2018-09-04T03:32:57.934Z,0
2018-09-04T03:34:08.063Z,0
2018-09-04T03:35:17.915Z,0
2018-09-04T03:36:27.766Z,0
2018-09-04T03:37:37.071Z,0
2018-09-04T03:38:46.930Z,0
2018-09-04T03:39:57.108Z,0
2018-09-04T03:41:06.968Z,0
2018-09-04T03:42:17.245Z,0
2018-09-04T03:43:27.111Z,0
2018-09-04T03:44:37.692Z,0
2018-09-04T03:45:47.322Z,0
2018-09-04T03:46:57.447Z,0
2018-09-04T03:48:07.583Z,0
2018-09-04T03:49:17.706Z,0
2018-09-04T03:50:27.557Z,0
2018-09-04T03:51:36.909Z,0
2018-09-04T03:52:47.029Z,0
2018-09-04T03:53:57.166Z,0
2018-09-04T03:55:06.468Z,0
2018-09-04T03:56:15.768Z,0
2018-09-04T03:57:25.405Z,0
2018-09-04T03:58:35.527Z,0
2018-09-04T03:59:44.835Z,0
2018-09-04T04:00:54.956Z,0
2018-09-04T04:02:04.810Z,0
2018-09-04T04:03:14.937Z,0
2018-09-04T04:04:24.512Z,0
2018-09-04T04:05:34.641Z,0
2018-09-04T04:06:44.494Z,0
2018-09-04T04:07:54.067Z,0
2018-09-04T04:09:03.969Z,5
2018-09-04T04:10:13.821Z,5
2018-09-04T04:11:23.940Z,5
2018-09-04T04:12:34.076Z,5
2018-09-04T04:13:44.207Z,5
2018-09-04T04:14:54.108Z,5
2018-09-04T04:16:03.982Z,5
2018-09-04T04:17:14.108Z,10
2018-09-04T04:18:24.230Z,10
2018-09-04T04:19:34.085Z,10
2018-09-04T04:20:44.261Z,10
2018-09-04T04:21:53.837Z,10
2018-09-04T04:23:03.967Z,15
2018-09-04T04:24:13.949Z,15
2018-09-04T04:25:23.801Z,15
2018-09-04T04:26:33.710Z,15
2018-09-04T04:27:43.846Z,20
2018-09-04T04:28:53.701Z,20
2018-09-04T04:30:03.842Z,20
2018-09-04T04:31:13.966Z,25
2018-09-04T04:32:23.867Z,25
2018-09-04T04:33:33.717Z,25
2018-09-04T04:34:43.844Z,30
2018-09-04T04:35:53.424Z,30
2018-09-04T04:37:03.549Z,30
2018-09-04T04:38:13.684Z,35
2018-09-04T04:39:23.277Z,35
2018-09-04T04:40:33.412Z,35
2018-09-04T04:41:43.273Z,40
2018-09-04T04:42:53.394Z,35
2018-09-04T04:44:03.302Z,40
2018-09-04T04:45:12.883Z,40
2018-09-04T04:46:22.790Z,40
2018-09-04T04:47:32.640Z,45
2018-09-04T04:48:42.768Z,45
2018-09-04T04:49:52.891Z,50
2018-09-04T04:51:02.738Z,50
2018-09-04T04:52:12.323Z,50
2018-09-04T04:53:22.446Z,55
2018-09-04T04:54:32.023Z,55
2018-09-04T04:55:41.941Z,55
2018-09-04T04:56:52.073Z,60
2018-09-04T04:58:02.203Z,60
2018-09-04T04:59:12.330Z,65
2018-09-04T05:00:22.779Z,65
2018-09-04T05:01:32.423Z,65
2018-09-04T05:02:42.552Z,65
2018-09-04T05:03:52.683Z,65
2018-09-04T05:05:02.545Z,65
2018-09-04T05:06:12.677Z,70
2018-09-04T05:07:22.584Z,70
2018-09-04T05:08:32.139Z,70
2018-09-04T05:09:42.272Z,75
2018-09-04T05:10:51.300Z,75
2018-09-04T05:12:00.875Z,75
2018-09-04T05:13:11.053Z,80
2018-09-04T05:14:21.182Z,80
2018-09-04T05:15:31.027Z,80
2018-09-04T05:16:40.874Z,85
2018-09-04T05:17:50.449Z,85
2018-09-04T05:19:00.624Z,85
2018-09-04T05:20:10.475Z,90
2018-09-04T05:21:20.320Z,90
2018-09-04T05:22:30.534Z,90
2018-09-04T05:23:40.719Z,95
2018-09-04T05:24:50.910Z,95
2018-09-04T05:26:00.769Z,100
2018-09-04T05:27:10.908Z,100
2018-09-04T05:28:20.484Z,105
2018-09-04T05:29:30.796Z,105
2018-09-04T05:30:40.790Z,110
2018-09-04T05:31:50.919Z,115
2018-09-04T05:33:00.779Z,120
2018-09-04T05:34:10.902Z,125
2018-09-04T05:35:20.489Z,130
2018-09-04T05:36:30.122Z,130
2018-09-04T05:37:39.986Z,135
2018-09-04T05:38:50.140Z,140
2018-09-04T05:40:00.266Z,145
2018-09-04T05:41:10.119Z,150
2018-09-04T05:42:20.017Z,150
2018-09-04T05:43:30.155Z,150
2018-09-04T05:44:40.276Z,150
2018-09-04T05:45:50.134Z,150
2018-09-04T05:46:59.989Z,150
2018-09-04T05:48:09.889Z,160
2018-09-04T05:49:20.029Z,155
2018-09-04T05:50:30.161Z,155
2018-09-04T05:51:40.010Z,160
2018-09-04T05:52:49.867Z,150
2018-09-04T05:54:00.200Z,150
2018-09-04T05:55:10.180Z,145
2018-09-04T05:56:19.814Z,135
2018-09-04T05:57:29.666Z,130
2018-09-04T05:58:39.792Z,130
2018-09-04T05:59:49.966Z,120
2018-09-04T06:00:59.814Z,125
2018-09-04T06:02:09.395Z,120
2018-09-04T06:03:19.570Z,120
2018-09-04T06:04:29.427Z,120
2018-09-04T06:05:39.281Z,120
2018-09-04T06:06:49.413Z,125
2018-09-04T06:07:59.264Z,125
2018-09-04T06:09:09.396Z,125
2018-09-04T06:10:19.265Z,130
2018-09-04T06:11:29.166Z,130
2018-09-04T06:12:39.020Z,130
2018-09-04T06:13:49.397Z,135
2018-09-04T06:14:59.293Z,135
2018-09-04T06:16:09.164Z,140
2018-09-04T06:17:19.068Z,135
2018-09-04T06:18:29.201Z,135
2018-09-04T06:19:38.782Z,135
2018-09-04T06:20:48.360Z,135
2018-09-04T06:21:58.227Z,135
2018-09-04T06:23:07.588Z,140
2018-09-04T06:24:17.437Z,135
2018-09-04T06:25:27.293Z,145
2018-09-04T06:26:37.155Z,135
2018-09-04T06:27:47.001Z,135
2018-09-04T06:28:57.174Z,140
2018-09-04T06:30:07.371Z,145
2018-09-04T06:31:17.503Z,135
2018-09-04T06:32:27.624Z,135
2018-09-04T06:33:37.780Z,135
2018-09-04T06:34:47.975Z,140
2018-09-04T06:35:57.279Z,140
2018-09-04T06:37:06.582Z,130
2018-09-04T06:38:16.164Z,125
2018-09-04T06:39:25.746Z,125
2018-09-04T06:40:36.074Z,125
2018-09-04T06:41:45.925Z,125
2018-09-04T06:43:17.982Z,125
2018-09-04T06:44:28.094Z,125
2018-09-04T06:45:38.492Z,130
2018-09-04T06:46:49.014Z,135
2018-09-04T06:47:58.870Z,140
2018-09-04T06:49:08.447Z,145
2018-09-04T06:50:18.294Z,150
2018-09-04T06:51:28.190Z,135
2018-09-04T06:52:37.769Z,145
2018-09-04T06:53:47.620Z,135
2018-09-04T06:54:57.749Z,130
2018-09-04T06:56:07.874Z,140
2018-09-04T06:57:17.225Z,135
2018-09-04T06:58:27.076Z,130
2018-09-04T06:59:37.198Z,140
2018-09-04T07:00:47.327Z,145
2018-09-04T07:01:57.450Z,155
2018-09-04T07:03:07.118Z,150
2018-09-04T07:04:16.691Z,135
2018-09-04T07:05:26.547Z,140
2018-09-04T07:06:36.397Z,135
2018-09-04T07:07:46.524Z,140
2018-09-04T07:08:56.387Z,150
2018-09-04T07:10:05.967Z,155
2018-09-04T07:11:15.819Z,165
2018-09-04T07:12:25.671Z,165
2018-09-04T07:13:35.517Z,165
2018-09-04T07:14:45.371Z,165
2018-09-04T07:15:55.221Z,165
2018-09-04T07:17:05.789Z,170
2018-09-04T07:18:15.396Z,170
2018-09-04T07:19:25.525Z,170
2018-09-04T07:20:35.153Z,170
2018-09-04T07:21:45.279Z,170
2018-09-04T07:22:55.412Z,170
2018-09-04T07:24:05.095Z,170
2018-09-04T07:25:15.222Z,170
2018-09-04T07:26:25.410Z,170
2018-09-04T07:27:35.262Z,170
2018-09-04T07:28:45.406Z,175
2018-09-04T07:29:54.984Z,180
2018-09-04T07:31:05.113Z,175
2018-09-04T07:32:14.972Z,175
2018-09-04T07:33:24.826Z,175
2018-09-04T07:34:34.959Z,175
2018-09-04T07:35:44.814Z,175
2018-09-04T07:36:54.942Z,175
2018-09-04T07:38:05.281Z,180
2018-09-04T07:39:14.865Z,180
2018-09-04T07:40:24.991Z,180
2018-09-04T07:41:34.862Z,180
2018-09-04T07:42:44.694Z,180
2018-09-04T07:43:55.031Z,180
2018-09-04T07:45:04.880Z,180
2018-09-04T07:46:14.193Z,180
2018-09-04T07:47:24.326Z,180
2018-09-04T07:48:34.179Z,180
2018-09-04T07:49:44.367Z,180
2018-09-04T07:50:54.491Z,180
2018-09-04T07:52:04.070Z,180
2018-09-04T07:53:13.943Z,185
2018-09-04T07:54:24.071Z,185
2018-09-04T07:55:34.206Z,185
2018-09-04T07:56:44.344Z,185
2018-09-04T07:57:54.199Z,185
2018-09-04T07:59:04.053Z,185
2018-09-04T08:00:13.436Z,185
2018-09-04T08:01:23.294Z,185
2018-09-04T08:02:32.603Z,185
2018-09-04T08:03:42.176Z,185
2018-09-04T08:04:51.751Z,190
2018-09-04T08:06:01.620Z,190
2018-09-04T08:07:11.897Z,190
2018-09-04T08:08:22.028Z,190
2018-09-04T08:09:32.151Z,190
2018-09-04T08:10:42.296Z,195
2018-09-04T08:11:51.870Z,190
2018-09-04T08:13:01.999Z,190
2018-09-04T08:14:12.138Z,190
2018-09-04T08:15:21.722Z,190
2018-09-04T08:16:32.535Z,190
2018-09-04T08:17:42.679Z,190
2018-09-04T08:18:52.538Z,190
2018-09-04T08:20:02.673Z,195
2018-09-04T08:21:12.531Z,195
2018-09-04T08:22:22.397Z,195
2018-09-04T08:23:32.530Z,195
2018-09-04T08:24:42.403Z,195
2018-09-04T08:25:52.256Z,195
2018-09-04T08:27:01.835Z,195
2018-09-04T08:28:11.693Z,195
2018-09-04T08:29:21.830Z,195
2018-09-04T08:30:31.695Z,195
2018-09-04T08:31:41.830Z,195
2018-09-04T08:32:52.411Z,195
2018-09-04T08:34:02.323Z,200
2018-09-04T08:35:11.903Z,200
2018-09-04T08:36:21.760Z,200
2018-09-04T08:37:31.892Z,200
2018-09-04T08:38:42.035Z,200
2018-09-04T08:39:51.657Z,200
2018-09-04T08:41:01.512Z,200
2018-09-04T08:42:11.382Z,200
2018-09-04T08:43:21.512Z,200
2018-09-04T08:44:31.639Z,200
2018-09-04T08:45:41.504Z,205
2018-09-04T08:46:51.635Z,205
2018-09-04T08:48:01.619Z,205
2018-09-04T08:49:11.201Z,205
2018-09-04T08:50:21.059Z,205
2018-09-04T08:51:31.209Z,205
2018-09-04T08:52:41.059Z,205
2018-09-04T08:53:51.664Z,205
2018-09-04T08:55:01.516Z,210
2018-09-04T08:56:11.380Z,210
2018-09-04T08:57:21.509Z,210
2018-09-04T08:58:31.492Z,210
2018-09-04T08:59:41.135Z,210
2018-09-04T09:00:51.261Z,215
2018-09-04T09:02:00.565Z,215
2018-09-04T09:03:10.422Z,215
2018-09-04T09:04:20.582Z,215
2018-09-04T09:05:30.998Z,215
2018-09-04T09:06:40.835Z,215
2018-09-04T09:07:50.697Z,215
2018-09-04T09:09:00.823Z,220
2018-09-04T09:10:10.822Z,215
2018-09-04T09:11:20.404Z,220
2018-09-04T09:12:30.558Z,225
2018-09-04T09:13:40.140Z,220
2018-09-04T09:14:50.269Z,220
2018-09-04T09:16:00.390Z,220
2018-09-04T09:17:10.243Z,220
2018-09-04T09:18:20.378Z,220
2018-09-04T09:19:30.507Z,220
2018-09-04T09:20:40.370Z,220
2018-09-04T09:21:50.510Z,225
2018-09-04T09:23:00.949Z,220
2018-09-04T09:24:10.532Z,225
2018-09-04T09:25:20.676Z,225
2018-09-04T09:26:30.809Z,225
2018-09-04T09:27:40.939Z,225
2018-09-04T09:28:51.070Z,225
2018-09-04T09:30:00.649Z,225
2018-09-04T09:31:10.512Z,225
2018-09-04T09:32:20.363Z,225
2018-09-04T09:33:30.221Z,225
2018-09-04T09:34:40.133Z,230
2018-09-04T09:35:50.009Z,230
2018-09-04T09:37:00.879Z,230
2018-09-04T09:38:11.085Z,230
2018-09-04T09:39:21.221Z,230
2018-09-04T09:40:31.504Z,235
2018-09-04T09:41:41.635Z,235
2018-09-04T09:42:51.815Z,230
2018-09-04T09:44:01.396Z,235
2018-09-04T09:45:10.989Z,235
2018-09-04T09:46:21.122Z,235
2018-09-04T09:47:31.267Z,235
2018-09-04T09:48:41.394Z,235
2018-09-04T09:49:51.519Z,235
2018-09-04T09:51:01.495Z,240
2018-09-04T09:52:11.367Z,240
2018-09-04T09:53:22.092Z,240
2018-09-04T09:54:31.907Z,240
2018-09-04T09:55:42.097Z,240
2018-09-04T09:56:52.456Z,245
2018-09-04T09:58:02.584Z,245
2018-09-04T09:59:12.714Z,245
2018-09-04T10:00:22.833Z,245
2018-09-04T10:01:32.563Z,245
2018-09-04T10:02:42.501Z,245
2018-09-04T10:03:51.887Z,250
2018-09-04T10:05:02.022Z,250
2018-09-04T10:06:12.160Z,250
2018-09-04T10:07:22.097Z,250
2018-09-04T10:08:31.860Z,255
2018-09-04T10:09:45.677Z,255
2018-09-04T10:10:55.847Z,255
2018-09-04T10:12:05.433Z,255
2018-09-04T10:13:15.567Z,255
2018-09-04T10:14:25.704Z,260
2018-09-04T10:15:35.836Z,260
2018-09-04T10:16:45.701Z,260
2018-09-04T10:17:55.829Z,260
2018-09-04T10:19:05.684Z,260
2018-09-04T10:20:15.541Z,260
2018-09-04T10:21:25.688Z,265
2018-09-04T10:22:35.900Z,265
2018-09-04T10:23:46.028Z,265
2018-09-04T10:24:55.337Z,265
2018-09-04T10:26:04.643Z,265
2018-09-04T10:27:14.498Z,270
2018-09-04T10:28:24.080Z,270
2018-09-04T10:29:33.661Z,270
2018-09-04T10:30:43.518Z,275
2018-09-04T10:31:53.383Z,275
2018-09-04T10:33:03.520Z,275
2018-09-04T10:34:13.370Z,280
2018-09-04T10:35:22.952Z,280
2018-09-04T10:36:33.446Z,280
2018-09-04T10:37:43.572Z,280
2018-09-04T10:38:53.436Z,280
2018-09-04T10:40:03.566Z,285
2018-09-04T10:41:13.467Z,290
2018-09-04T10:42:23.322Z,290
2018-09-04T10:43:32.902Z,295
2018-09-04T10:44:42.917Z,290
2018-09-04T10:45:53.048Z,290
2018-09-04T10:47:02.903Z,290
2018-09-04T10:48:12.754Z,290
2018-09-04T10:49:22.334Z,290
2018-09-04T10:50:32.465Z,290
2018-09-04T10:51:42.598Z,290
2018-09-04T10:52:52.463Z,290
2018-09-04T10:54:02.045Z,290
2018-09-04T10:55:11.633Z,290
2018-09-04T10:56:21.781Z,290
2018-09-04T10:57:31.945Z,290
2018-09-04T10:58:41.814Z,295
2018-09-04T10:59:51.121Z,290
2018-09-04T11:01:01.255Z,295
2018-09-04T11:02:11.245Z,295
2018-09-04T11:03:21.396Z,295
2018-09-04T11:04:31.531Z,295
2018-09-04T11:05:41.402Z,300
2018-09-04T11:06:51.534Z,300
2018-09-04T11:08:01.395Z,300
2018-09-04T11:09:11.192Z,305
2018-09-04T11:10:21.043Z,305
2018-09-04T11:11:30.897Z,315
2018-09-04T11:12:41.026Z,470
2018-09-04T11:13:51.155Z,1310
2018-09-04T11:15:00.732Z,1630
2018-09-04T11:16:10.318Z,1560
2018-09-04T11:17:20.461Z,1480
2018-09-04T11:18:30.604Z,1480
2018-09-04T11:19:40.458Z,1495
2018-09-04T11:20:50.607Z,1430
2018-09-04T11:22:00.745Z,1350
2018-09-04T11:23:10.337Z,1390
2018-09-04T11:24:20.199Z,1310
2018-09-04T11:25:29.517Z,1205
2018-09-04T11:26:39.384Z,1215
2018-09-04T11:27:48.972Z,1305
2018-09-04T11:28:58.832Z,1250
2018-09-04T11:30:08.976Z,1190
2018-09-04T11:31:18.894Z,1165
2018-09-04T11:32:28.773Z,1205
2018-09-04T11:33:38.643Z,1100
2018-09-04T11:34:48.507Z,1225
2018-09-04T11:35:58.647Z,1225
2018-09-04T11:37:08.289Z,1165
2018-09-04T11:38:18.445Z,1160
2018-09-04T11:39:28.586Z,1130
2018-09-04T11:40:39.182Z,1170
2018-09-04T11:41:49.066Z,1180
2018-09-04T11:42:58.992Z,1100
2018-09-04T11:44:08.863Z,1170
2018-09-04T11:45:18.467Z,1200
2018-09-04T11:46:28.622Z,1135
2018-09-04T11:47:38.760Z,1135
2018-09-04T11:48:48.279Z,1205
2018-09-04T11:49:58.153Z,1250
2018-09-04T11:51:08.019Z,1250
2018-09-04T11:52:18.003Z,1275
2018-09-04T11:53:27.545Z,1310
2018-09-04T11:54:37.470Z,1360
2018-09-04T11:55:47.339Z,1410
2018-09-04T11:56:57.482Z,1395
2018-09-04T11:58:07.621Z,1375
2018-09-04T11:59:17.491Z,1380
2018-09-04T12:00:27.694Z,1330
2018-09-04T12:01:37.559Z,1360
2018-09-04T12:02:47.707Z,1435
2018-09-04T12:03:57.029Z,1485
2018-09-04T12:05:06.902Z,1515
2018-09-04T12:06:17.060Z,1470
2018-09-04T12:07:26.930Z,1510
2018-09-04T12:08:36.797Z,1605
2018-09-04T12:09:46.667Z,1610
2018-09-04T12:10:56.537Z,1525
2018-09-04T12:12:06.456Z,1590
2018-09-04T12:13:17.227Z,1640
2018-09-04T12:14:26.577Z,1595
2018-09-04T12:15:36.458Z,1470
2018-09-04T12:16:46.331Z,1485
2018-09-04T12:17:56.206Z,1545
2018-09-04T12:19:06.270Z,1560
2018-09-04T12:20:16.420Z,1585
2018-09-04T12:21:27.005Z,1755
2018-09-04T12:22:36.879Z,2150
2018-09-04T12:23:46.800Z,2525
2018-09-04T12:24:57.391Z,2280
2018-09-04T12:26:07.533Z,1820
2018-09-04T12:27:18.101Z,1705
2018-09-04T12:28:28.289Z,1835
2018-09-04T12:29:38.210Z,1930
2018-09-04T12:30:48.352Z,1890
2018-09-04T12:31:58.223Z,1890
2018-09-04T12:33:07.841Z,1955
2018-09-04T12:34:17.997Z,2090
2018-09-04T12:35:28.193Z,2190
2018-09-04T12:36:38.078Z,2235
2018-09-04T12:37:47.971Z,2130
2018-09-04T12:38:57.839Z,2235
2018-09-04T12:40:07.437Z,2230
2018-09-04T12:41:16.817Z,2300
2018-09-04T12:42:26.268Z,2355
2018-09-04T12:43:35.612Z,2300
2018-09-04T12:44:45.206Z,2375
2018-09-04T12:45:55.102Z,2375
2018-09-04T12:47:05.295Z,2370
2018-09-04T12:48:16.239Z,2460
2018-09-04T12:49:26.484Z,2490
2018-09-04T12:50:36.082Z,2355
2018-09-04T12:51:45.682Z,2335
2018-09-04T12:52:55.876Z,2330
2018-09-04T12:54:05.195Z,2360
2018-09-04T12:55:14.792Z,2345
2018-09-04T12:56:24.659Z,2445
2018-09-04T12:57:34.803Z,2490
2018-09-04T12:58:44.725Z,2325
2018-09-04T12:59:54.981Z,2380
2018-09-04T13:01:04.606Z,2340
2018-09-04T13:02:14.487Z,2480
2018-09-04T13:03:24.094Z,2490
2018-09-04T13:04:33.975Z,2490
2018-09-04T13:05:43.841Z,2435
2018-09-04T13:06:53.709Z,2405
2018-09-04T13:08:03.578Z,2455
2018-09-04T13:09:14.267Z,2390
2018-09-04T13:10:24.471Z,2470
2018-09-04T13:11:34.345Z,2530
2018-09-04T13:12:44.488Z,2485
2018-09-04T13:13:54.414Z,2485
2018-09-04T13:15:04.280Z,2670
2018-09-04T13:16:14.419Z,2645
2018-09-04T13:17:24.288Z,2515
2018-09-04T13:18:34.159Z,2515
2018-09-04T13:19:43.758Z,2430
2018-09-04T13:20:53.625Z,2520
2018-09-04T13:22:04.420Z,2535
2018-09-04T13:23:14.601Z,2390
2018-09-04T13:24:24.477Z,2385
2018-09-04T13:25:34.077Z,2355
2018-09-04T13:26:44.231Z,2345
2018-09-04T13:27:54.100Z,2395
2018-09-04T13:29:04.250Z,2355
2018-09-04T13:30:14.124Z,2315
2018-09-04T13:31:23.720Z,2430
2018-09-04T13:32:33.873Z,2310
2018-09-04T13:33:44.077Z,2345
2018-09-04T13:34:53.950Z,2430
2018-09-04T13:36:03.826Z,2420
2018-09-04T13:37:13.159Z,2445
2018-09-04T13:38:23.040Z,2415
2018-09-04T13:39:33.237Z,2395
2018-09-04T13:40:43.108Z,2440
2018-09-04T13:41:53.256Z,2465
2018-09-04T13:43:03.134Z,2310
2018-09-04T13:44:13.022Z,2205
2018-09-04T13:45:22.947Z,2190
2018-09-04T13:46:32.546Z,2260
2018-09-04T13:47:42.421Z,2265
2018-09-04T13:48:52.304Z,1790
2018-09-04T13:50:02.445Z,1640
2018-09-04T13:51:12.587Z,1850
2018-09-04T13:52:22.735Z,2240
2018-09-04T13:53:32.886Z,1235
2018-09-04T13:54:42.481Z,1350
2018-09-04T13:55:52.078Z,2130
2018-09-04T13:57:02.091Z,1300
2018-09-04T13:58:12.250Z,525
2018-09-04T13:59:22.396Z,445
2018-09-04T14:00:32.549Z,430
2018-09-04T14:01:42.688Z,420
2018-09-04T14:02:52.832Z,420
2018-09-04T14:04:02.695Z,425
2018-09-04T14:05:12.289Z,420
2018-09-04T14:06:22.165Z,520
2018-09-04T14:07:32.313Z,1065
2018-09-04T14:08:42.456Z,2010
2018-09-04T14:09:52.597Z,1970
2018-09-04T14:11:02.780Z,2195
2018-09-04T14:12:12.925Z,2210
2018-09-04T14:13:23.078Z,2160
2018-09-04T14:14:33.000Z,2290
2018-09-04T14:15:43.141Z,2270
2018-09-04T14:16:53.332Z,2170
2018-09-04T14:18:03.480Z,2180
2018-09-04T14:19:13.345Z,2185
2018-09-04T14:20:23.548Z,2235
2018-09-04T14:21:33.138Z,2060
2018-09-04T14:22:43.915Z,2200
2018-09-04T14:23:53.790Z,2165
2018-09-04T14:25:03.654Z,2100
2018-09-04T14:26:13.847Z,1835
2018-09-04T14:27:23.941Z,1650
2018-09-04T14:29:11.723Z,1645
2018-09-04T14:30:26.034Z,1640
2018-09-04T14:31:35.653Z,1765
2018-09-04T14:32:45.528Z,1985
2018-09-04T14:33:55.686Z,2140
2018-09-04T14:35:05.571Z,2120
2018-09-04T14:36:15.869Z,2130
2018-09-04T14:37:25.799Z,2165
2018-09-04T14:38:35.942Z,2125
2018-09-04T14:39:55.583Z,2125
2018-09-04T14:41:06.090Z,2145
2018-09-04T14:42:16.582Z,2155
2018-09-04T14:43:26.412Z,2100
2018-09-04T14:44:36.560Z,2040
2018-09-04T14:45:46.719Z,2115
2018-09-04T14:46:56.874Z,2095
2018-09-04T14:48:07.264Z,2130
2018-09-04T14:49:16.638Z,2110
2018-09-04T14:50:26.790Z,2065
2018-09-04T14:51:36.936Z,1940
2018-09-04T14:52:46.816Z,1790
2018-09-04T14:53:56.693Z,1875
2018-09-04T14:55:06.562Z,2090
2018-09-04T14:56:16.442Z,1995
2018-09-04T14:57:26.314Z,1885
2018-09-04T14:58:36.182Z,1980
2018-09-04T14:59:46.345Z,2010
2018-09-04T15:00:56.227Z,2005
2018-09-04T15:02:06.095Z,1955
2018-09-04T15:03:15.962Z,1995
2018-09-04T15:04:25.831Z,2010
2018-09-04T15:05:35.203Z,1990
2018-09-04T15:06:45.071Z,2000
2018-09-04T15:07:54.944Z,1935
2018-09-04T15:09:04.811Z,1905
2018-09-04T15:10:14.965Z,1860
2018-09-04T15:11:24.884Z,1890
2018-09-04T15:13:59.243Z,1935
2018-09-04T15:15:09.112Z,1940
2018-09-04T15:16:18.766Z,1930
2018-09-04T15:17:28.915Z,1970
2018-09-04T15:18:38.781Z,1900
2018-09-04T15:19:48.394Z,1835
2018-09-04T15:20:58.268Z,1855
2018-09-04T15:22:07.915Z,1875
2018-09-04T15:23:17.513Z,1825
2018-09-04T15:24:27.390Z,990
2018-09-04T15:25:37.942Z,395
2018-09-04T15:26:47.888Z,390
2018-09-04T15:27:58.086Z,350
2018-09-04T15:29:07.967Z,430
2018-09-04T15:30:17.844Z,450
2018-09-04T15:31:28.022Z,325
2018-09-04T15:32:37.901Z,315
2018-09-04T15:33:47.379Z,310
2018-09-04T15:34:57.262Z,305
2018-09-04T15:36:07.406Z,300
2018-09-04T15:37:17.007Z,300
2018-09-04T15:38:27.154Z,290
2018-09-04T15:39:37.343Z,295
2018-09-04T15:40:47.486Z,285
2018-09-04T15:41:57.367Z,280
2018-09-04T15:43:07.233Z,280
2018-09-04T15:44:17.095Z,280
2018-09-04T15:45:27.007Z,275
2018-09-04T15:46:36.886Z,270
2018-09-04T15:47:47.025Z,270
2018-09-04T15:48:56.618Z,270
2018-09-04T15:50:05.661Z,265
2018-09-04T15:51:15.303Z,265
2018-09-04T15:52:25.165Z,260
2018-09-04T15:53:34.757Z,260
2018-09-04T15:54:44.898Z,260
2018-09-04T15:55:55.049Z,255
2018-09-04T15:57:05.374Z,255
2018-09-04T15:58:15.283Z,250
2018-09-04T15:59:25.423Z,250
2018-09-04T16:00:35.301Z,245
2018-09-04T16:01:45.447Z,245
2018-09-04T16:02:55.307Z,245
2018-09-04T16:04:04.895Z,240
2018-09-04T16:05:15.028Z,240
2018-09-04T16:06:24.625Z,240
2018-09-04T16:07:34.490Z,235
2018-09-04T16:08:44.524Z,235
2018-09-04T16:09:55.349Z,235
2018-09-04T16:11:04.765Z,230
2018-09-04T16:12:14.350Z,230
2018-09-04T16:13:23.662Z,230
2018-09-04T16:14:33.577Z,225
2018-09-04T16:15:43.711Z,230
2018-09-04T16:16:53.569Z,225
2018-09-04T16:18:03.155Z,225